sensor_id;sensor_type;location;lat;lon;timestamp;P1;durP1;ratioP1;P2;durP2;ratioP2
53618;SDS011;68717;53.040;18.488;2023-09-18T00:00:06;12.27;;;7.75;;
53618;SDS011;68717;53.040;18.488;2023-09-18T00:00:43;14.23;;;8.18;;
53618;SDS011;68717;53.040;18.488;2023-09-18T00:01:17;11.68;;;7.78;;
53618;SDS011;68717;53.040;18.488;2023-09-18T00:01:32;12.05;;;7.82;;
53618;SDS011;68717;53.040;18.488;2023-09-18T00:01:44;12.43;;;8.00;;
53618;SDS011;68717;53.040;18.488;2023-09-18T00:01:57;12.30;;;8.18;;
53618;SDS011;68717;53.040;18.488;2023-09-18T00:02:10;11.00;;;7.90;;
53618;SDS011;68717;53.040;18.488;2023-09-18T00:02:23;11.60;;;7.85;;
53618;SDS011;68717;53.040;18.488;2023-09-18T00:02:36;13.52;;;8.13;;
53618;SDS011;68717;53.040;18.488;2023-09-18T00:02:50;12.38;;;7.85;;
53618;SDS011;68717;53.040;18.488;2023-09-18T00:03:02;11.02;;;7.50;;
53618;SDS011;68717;53.040;18.488;2023-09-18T00:03:16;10.98;;;7.45;;
53618;SDS011;68717;53.040;18.488;2023-09-18T00:03:29;12.35;;;7.88;;
53618;SDS011;68717;53.040;18.488;2023-09-18T00:03:42;12.55;;;8.07;;
53618;SDS011;68717;53.040;18.488;2023-09-18T00:03:55;11.70;;;7.95;;
53618;SDS011;68717;53.040;18.488;2023-09-18T00:04:07;12.10;;;8.18;;
53618;SDS011;68717;53.040;18.488;2023-09-18T00:04:21;13.52;;;8.30;;
53618;SDS011;68717;53.040;18.488;2023-09-18T00:04:34;12.80;;;8.00;;
53618;SDS011;68717;53.040;18.488;2023-09-18T00:04:46;11.70;;;7.68;;
53618;SDS011;68717;53.040;18.488;2023-09-18T00:05:00;12.38;;;7.90;;
53618;SDS011;68717;53.040;18.488;2023-09-18T00:05:12;14.80;;;8.02;;
53618;SDS011;68717;53.040;18.488;2023-09-18T00:05:28;14.80;;;8.18;;
53618;SDS011;68717;53.040;18.488;2023-09-18T00:05:41;12.95;;;8.27;;
53618;SDS011;68717;53.040;18.488;2023-09-18T00:05:53;13.55;;;8.52;;
53618;SDS011;68717;53.040;18.488;2023-09-18T00:06:07;13.55;;;8.40;;
53618;SDS011;68717;53.040;18.488;2023-09-18T00:06:22;14.87;;;8.20;;
53618;SDS011;68717;53.040;18.488;2023-09-18T00:06:37;15.77;;;8.40;;
53618;SDS011;68717;53.040;18.488;2023-09-18T00:06:49;15.35;;;8.73;;
53618;SDS011;68717;53.040;18.488;2023-09-18T00:07:02;15.38;;;8.60;;
53618;SDS011;68717;53.040;18.488;2023-09-18T00:07:15;13.35;;;8.15;;
53618;SDS011;68717;53.040;18.488;2023-09-18T00:07:28;12.57;;;8.15;;
53618;SDS011;68717;53.040;18.488;2023-09-18T00:07:40;13.13;;;8.18;;
53618;SDS011;68717;53.040;18.488;2023-09-18T00:07:54;12.50;;;7.90;;
53618;SDS011;68717;53.040;18.488;2023-09-18T00:08:07;11.27;;;7.82;;
53618;SDS011;68717;53.040;18.488;2023-09-18T00:08:19;11.15;;;7.57;;
53618;SDS011;68717;53.040;18.488;2023-09-18T00:08:32;12.60;;;7.75;;
53618;SDS011;68717;53.040;18.488;2023-09-18T00:08:45;13.75;;;8.07;;
53618;SDS011;68717;53.040;18.488;2023-09-18T00:08:58;14.40;;;8.18;;
53618;SDS011;68717;53.040;18.488;2023-09-18T00:09:10;14.43;;;8.25;;
53618;SDS011;68717;53.040;18.488;2023-09-18T00:09:25;12.35;;;7.90;;
53618;SDS011;68717;53.040;18.488;2023-09-18T00:09:38;12.25;;;7.78;;
53618;SDS011;68717;53.040;18.488;2023-09-18T00:09:51;12.90;;;8.05;;
53618;SDS011;68717;53.040;18.488;2023-09-18T00:10:03;12.63;;;8.23;;
53618;SDS011;68717;53.040;18.488;2023-09-18T00:10:16;12.80;;;8.10;;
53618;SDS011;68717;53.040;18.488;2023-09-18T00:10:29;13.38;;;8.38;;
53618;SDS011;68717;53.040;18.488;2023-09-18T00:10:42;12.73;;;8.23;;
53618;SDS011;68717;53.040;18.488;2023-09-18T00:10:59;14.38;;;8.25;;
53618;SDS011;68717;53.040;18.488;2023-09-18T00:11:13;14.02;;;8.32;;
53618;SDS011;68717;53.040;18.488;2023-09-18T00:11:26;12.02;;;8.05;;
53618;SDS011;68717;53.040;18.488;2023-09-18T00:11:39;11.73;;;7.75;;
53618;SDS011;68717;53.040;18.488;2023-09-18T00:11:52;12.98;;;8.15;;
53618;SDS011;68717;53.040;18.488;2023-09-18T00:12:05;12.88;;;8.10;;
53618;SDS011;68717;53.040;18.488;2023-09-18T00:12:18;12.02;;;7.88;;
53618;SDS011;68717;53.040;18.488;2023-09-18T00:12:31;13.05;;;7.97;;
53618;SDS011;68717;53.040;18.488;2023-09-18T00:12:43;13.40;;;8.20;;
53618;SDS011;68717;53.040;18.488;2023-09-18T00:12:57;13.48;;;8.48;;
53618;SDS011;68717;53.040;18.488;2023-09-18T00:13:09;12.82;;;8.35;;
53618;SDS011;68717;53.040;18.488;2023-09-18T00:13:22;15.45;;;8.52;;
53618;SDS011;68717;53.040;18.488;2023-09-18T00:13:35;15.75;;;8.68;;
53618;SDS011;68717;53.040;18.488;2023-09-18T00:13:48;15.18;;;8.65;;
53618;SDS011;68717;53.040;18.488;2023-09-18T00:14:00;13.38;;;8.57;;
53618;SDS011;68717;53.040;18.488;2023-09-18T00:14:13;12.98;;;8.50;;
53618;SDS011;68717;53.040;18.488;2023-09-18T00:14:25;13.60;;;8.85;;
53618;SDS011;68717;53.040;18.488;2023-09-18T00:14:38;13.73;;;8.45;;
53618;SDS011;68717;53.040;18.488;2023-09-18T00:14:53;12.18;;;7.95;;
53618;SDS011;68717;53.040;18.488;2023-09-18T00:15:06;13.05;;;8.32;;
53618;SDS011;68717;53.040;18.488;2023-09-18T00:15:20;14.60;;;8.63;;
53618;SDS011;68717;53.040;18.488;2023-09-18T00:15:33;14.70;;;8.77;;
53618;SDS011;68717;53.040;18.488;2023-09-18T00:15:46;14.93;;;9.02;;
53618;SDS011;68717;53.040;18.488;2023-09-18T00:16:00;14.27;;;8.82;;
53618;SDS011;68717;53.040;18.488;2023-09-18T00:16:13;13.77;;;8.65;;
53618;SDS011;68717;53.040;18.488;2023-09-18T00:16:26;13.55;;;8.15;;
53618;SDS011;68717;53.040;18.488;2023-09-18T00:16:40;14.50;;;8.02;;
53618;SDS011;68717;53.040;18.488;2023-09-18T00:17:09;14.65;;;8.60;;
53618;SDS011;68717;53.040;18.488;2023-09-18T00:17:22;12.90;;;8.50;;
53618;SDS011;68717;53.040;18.488;2023-09-18T00:17:36;12.70;;;8.30;;
53618;SDS011;68717;53.040;18.488;2023-09-18T00:17:49;12.93;;;8.40;;
53618;SDS011;68717;53.040;18.488;2023-09-18T00:18:02;13.02;;;8.70;;
53618;SDS011;68717;53.040;18.488;2023-09-18T00:18:15;12.82;;;8.40;;
53618;SDS011;68717;53.040;18.488;2023-09-18T00:18:29;12.57;;;7.97;;
53618;SDS011;68717;53.040;18.488;2023-09-18T00:18:41;12.68;;;8.18;;
53618;SDS011;68717;53.040;18.488;2023-09-18T00:18:56;12.68;;;8.20;;
53618;SDS011;68717;53.040;18.488;2023-09-18T00:19:08;16.10;;;8.40;;
53618;SDS011;68717;53.040;18.488;2023-09-18T00:19:21;16.58;;;8.60;;
53618;SDS011;68717;53.040;18.488;2023-09-18T00:19:34;15.55;;;9.00;;
53618;SDS011;68717;53.040;18.488;2023-09-18T00:19:47;13.32;;;8.70;;
53618;SDS011;68717;53.040;18.488;2023-09-18T00:19:59;12.63;;;8.32;;
53618;SDS011;68717;53.040;18.488;2023-09-18T00:20:12;12.10;;;8.15;;
53618;SDS011;68717;53.040;18.488;2023-09-18T00:20:25;13.27;;;8.18;;
53618;SDS011;68717;53.040;18.488;2023-09-18T00:20:39;13.48;;;8.38;;
53618;SDS011;68717;53.040;18.488;2023-09-18T00:20:53;13.05;;;8.32;;
53618;SDS011;68717;53.040;18.488;2023-09-18T00:21:06;13.73;;;8.27;;
53618;SDS011;68717;53.040;18.488;2023-09-18T00:21:19;12.98;;;8.15;;
53618;SDS011;68717;53.040;18.488;2023-09-18T00:21:33;13.00;;;8.32;;
53618;SDS011;68717;53.040;18.488;2023-09-18T00:21:46;13.82;;;8.73;;
53618;SDS011;68717;53.040;18.488;2023-09-18T00:21:58;14.32;;;8.88;;
53618;SDS011;68717;53.040;18.488;2023-09-18T00:22:13;14.18;;;8.77;;
53618;SDS011;68717;53.040;18.488;2023-09-18T00:22:25;13.23;;;8.45;;
53618;SDS011;68717;53.040;18.488;2023-09-18T00:22:38;13.32;;;8.32;;
53618;SDS011;68717;53.040;18.488;2023-09-18T00:22:52;14.25;;;8.18;;
53618;SDS011;68717;53.040;18.488;2023-09-18T00:23:05;13.30;;;8.18;;
53618;SDS011;68717;53.040;18.488;2023-09-18T00:23:17;13.77;;;8.43;;
53618;SDS011;68717;53.040;18.488;2023-09-18T00:23:30;17.20;;;8.90;;
53618;SDS011;68717;53.040;18.488;2023-09-18T00:23:43;17.05;;;8.85;;
53618;SDS011;68717;53.040;18.488;2023-09-18T00:23:56;13.35;;;8.30;;
53618;SDS011;68717;53.040;18.488;2023-09-18T00:24:10;14.88;;;8.77;;
53618;SDS011;68717;53.040;18.488;2023-09-18T00:24:23;14.52;;;8.80;;
53618;SDS011;68717;53.040;18.488;2023-09-18T00:24:37;13.77;;;8.57;;
53618;SDS011;68717;53.040;18.488;2023-09-18T00:24:49;13.25;;;8.45;;
53618;SDS011;68717;53.040;18.488;2023-09-18T00:25:03;13.90;;;8.55;;
53618;SDS011;68717;53.040;18.488;2023-09-18T00:25:16;14.98;;;8.60;;
53618;SDS011;68717;53.040;18.488;2023-09-18T00:25:29;16.17;;;8.70;;
53618;SDS011;68717;53.040;18.488;2023-09-18T00:25:42;13.90;;;8.32;;
53618;SDS011;68717;53.040;18.488;2023-09-18T00:25:55;13.20;;;8.40;;
53618;SDS011;68717;53.040;18.488;2023-09-18T00:26:09;13.15;;;8.38;;
53618;SDS011;68717;53.040;18.488;2023-09-18T00:26:22;14.50;;;8.40;;
53618;SDS011;68717;53.040;18.488;2023-09-18T00:26:34;14.63;;;8.40;;
53618;SDS011;68717;53.040;18.488;2023-09-18T00:26:47;13.68;;;8.70;;
53618;SDS011;68717;53.040;18.488;2023-09-18T00:27:00;13.57;;;8.90;;
53618;SDS011;68717;53.040;18.488;2023-09-18T00:27:13;14.07;;;8.70;;
53618;SDS011;68717;53.040;18.488;2023-09-18T00:27:26;14.10;;;8.50;;
53618;SDS011;68717;53.040;18.488;2023-09-18T00:27:39;13.32;;;8.52;;
53618;SDS011;68717;53.040;18.488;2023-09-18T00:27:51;12.32;;;8.20;;
53618;SDS011;68717;53.040;18.488;2023-09-18T00:28:05;13.52;;;8.32;;
53618;SDS011;68717;53.040;18.488;2023-09-18T00:28:18;13.93;;;8.32;;
53618;SDS011;68717;53.040;18.488;2023-09-18T00:28:30;14.27;;;8.38;;
53618;SDS011;68717;53.040;18.488;2023-09-18T00:28:43;14.98;;;8.68;;
53618;SDS011;68717;53.040;18.488;2023-09-18T00:28:56;14.25;;;8.40;;
53618;SDS011;68717;53.040;18.488;2023-09-18T00:29:08;13.27;;;8.18;;
53618;SDS011;68717;53.040;18.488;2023-09-18T00:29:21;13.10;;;8.20;;
53618;SDS011;68717;53.040;18.488;2023-09-18T00:29:34;14.68;;;8.25;;
53618;SDS011;68717;53.040;18.488;2023-09-18T00:29:46;14.77;;;8.40;;
53618;SDS011;68717;53.040;18.488;2023-09-18T00:30:00;13.70;;;8.32;;
53618;SDS011;68717;53.040;18.488;2023-09-18T00:30:13;13.00;;;8.00;;
53618;SDS011;68717;53.040;18.488;2023-09-18T00:30:26;11.82;;;8.05;;
53618;SDS011;68717;53.040;18.488;2023-09-18T00:30:42;11.45;;;8.15;;
53618;SDS011;68717;53.040;18.488;2023-09-18T00:30:58;12.07;;;8.10;;
53618;SDS011;68717;53.040;18.488;2023-09-18T00:31:11;12.52;;;8.13;;
53618;SDS011;68717;53.040;18.488;2023-09-18T00:31:24;15.02;;;8.32;;
53618;SDS011;68717;53.040;18.488;2023-09-18T00:31:36;15.95;;;8.40;;
53618;SDS011;68717;53.040;18.488;2023-09-18T00:31:49;15.35;;;8.75;;
53618;SDS011;68717;53.040;18.488;2023-09-18T00:32:02;13.52;;;8.65;;
53618;SDS011;68717;53.040;18.488;2023-09-18T00:32:16;12.15;;;8.40;;
53618;SDS011;68717;53.040;18.488;2023-09-18T00:32:29;12.48;;;8.35;;
53618;SDS011;68717;53.040;18.488;2023-09-18T00:32:42;12.65;;;8.38;;
53618;SDS011;68717;53.040;18.488;2023-09-18T00:32:55;13.55;;;8.45;;
53618;SDS011;68717;53.040;18.488;2023-09-18T00:33:08;14.90;;;8.95;;
53618;SDS011;68717;53.040;18.488;2023-09-18T00:33:20;13.82;;;8.60;;
53618;SDS011;68717;53.040;18.488;2023-09-18T00:33:33;12.55;;;8.32;;
53618;SDS011;68717;53.040;18.488;2023-09-18T00:33:46;12.57;;;8.40;;
53618;SDS011;68717;53.040;18.488;2023-09-18T00:33:58;12.65;;;8.52;;
53618;SDS011;68717;53.040;18.488;2023-09-18T00:34:12;12.60;;;8.52;;
53618;SDS011;68717;53.040;18.488;2023-09-18T00:34:25;13.63;;;8.65;;
53618;SDS011;68717;53.040;18.488;2023-09-18T00:34:37;13.35;;;8.50;;
53618;SDS011;68717;53.040;18.488;2023-09-18T00:34:50;13.25;;;8.20;;
53618;SDS011;68717;53.040;18.488;2023-09-18T00:35:03;13.65;;;8.30;;
53618;SDS011;68717;53.040;18.488;2023-09-18T00:35:16;12.90;;;8.48;;
53618;SDS011;68717;53.040;18.488;2023-09-18T00:35:29;12.82;;;8.50;;
53618;SDS011;68717;53.040;18.488;2023-09-18T00:35:44;13.02;;;8.27;;
53618;SDS011;68717;53.040;18.488;2023-09-18T00:35:58;14.25;;;8.20;;
53618;SDS011;68717;53.040;18.488;2023-09-18T00:36:10;14.75;;;8.45;;
53618;SDS011;68717;53.040;18.488;2023-09-18T00:36:23;14.05;;;8.48;;
53618;SDS011;68717;53.040;18.488;2023-09-18T00:36:37;13.15;;;8.20;;
53618;SDS011;68717;53.040;18.488;2023-09-18T00:36:50;12.98;;;8.35;;
53618;SDS011;68717;53.040;18.488;2023-09-18T00:37:03;13.85;;;8.52;;
53618;SDS011;68717;53.040;18.488;2023-09-18T00:37:16;14.43;;;8.60;;
53618;SDS011;68717;53.040;18.488;2023-09-18T00:37:29;13.65;;;8.48;;
53618;SDS011;68717;53.040;18.488;2023-09-18T00:37:42;12.55;;;8.35;;
53618;SDS011;68717;53.040;18.488;2023-09-18T00:37:55;12.38;;;8.50;;
53618;SDS011;68717;53.040;18.488;2023-09-18T00:38:08;13.38;;;8.65;;
53618;SDS011;68717;53.040;18.488;2023-09-18T00:38:21;14.48;;;8.65;;
53618;SDS011;68717;53.040;18.488;2023-09-18T00:38:34;14.32;;;8.52;;
53618;SDS011;68717;53.040;18.488;2023-09-18T00:38:46;14.70;;;8.50;;
53618;SDS011;68717;53.040;18.488;2023-09-18T00:39:00;13.13;;;8.30;;
53618;SDS011;68717;53.040;18.488;2023-09-18T00:39:13;13.00;;;8.25;;
53618;SDS011;68717;53.040;18.488;2023-09-18T00:39:27;12.57;;;8.20;;
53618;SDS011;68717;53.040;18.488;2023-09-18T00:39:39;12.38;;;8.43;;
53618;SDS011;68717;53.040;18.488;2023-09-18T00:39:53;13.30;;;8.80;;
53618;SDS011;68717;53.040;18.488;2023-09-18T00:40:06;13.95;;;8.73;;
53618;SDS011;68717;53.040;18.488;2023-09-18T00:40:19;13.93;;;8.52;;
53618;SDS011;68717;53.040;18.488;2023-09-18T00:40:32;13.57;;;8.68;;
53618;SDS011;68717;53.040;18.488;2023-09-18T00:40:44;12.65;;;8.73;;
53618;SDS011;68717;53.040;18.488;2023-09-18T00:40:57;13.27;;;8.68;;
53618;SDS011;68717;53.040;18.488;2023-09-18T00:41:11;14.15;;;8.73;;
53618;SDS011;68717;53.040;18.488;2023-09-18T00:41:24;14.65;;;9.00;;
53618;SDS011;68717;53.040;18.488;2023-09-18T00:41:36;15.73;;;8.98;;
53618;SDS011;68717;53.040;18.488;2023-09-18T00:41:50;14.88;;;8.85;;
53618;SDS011;68717;53.040;18.488;2023-09-18T00:42:06;14.27;;;8.70;;
53618;SDS011;68717;53.040;18.488;2023-09-18T00:42:18;13.25;;;8.48;;
53618;SDS011;68717;53.040;18.488;2023-09-18T00:42:31;13.57;;;8.50;;
53618;SDS011;68717;53.040;18.488;2023-09-18T00:42:44;12.95;;;8.40;;
53618;SDS011;68717;53.040;18.488;2023-09-18T00:42:58;12.95;;;8.20;;
53618;SDS011;68717;53.040;18.488;2023-09-18T00:43:10;13.15;;;8.30;;
53618;SDS011;68717;53.040;18.488;2023-09-18T00:43:24;13.00;;;8.60;;
53618;SDS011;68717;53.040;18.488;2023-09-18T00:43:37;12.55;;;8.65;;
53618;SDS011;68717;53.040;18.488;2023-09-18T00:43:49;13.27;;;8.15;;
53618;SDS011;68717;53.040;18.488;2023-09-18T00:44:02;13.30;;;8.00;;
53618;SDS011;68717;53.040;18.488;2023-09-18T00:44:17;14.05;;;8.60;;
53618;SDS011;68717;53.040;18.488;2023-09-18T00:44:29;14.35;;;8.85;;
53618;SDS011;68717;53.040;18.488;2023-09-18T00:44:42;14.32;;;8.82;;
53618;SDS011;68717;53.040;18.488;2023-09-18T00:44:55;14.60;;;8.63;;
53618;SDS011;68717;53.040;18.488;2023-09-18T00:45:08;14.10;;;8.55;;
53618;SDS011;68717;53.040;18.488;2023-09-18T00:45:21;15.45;;;8.75;;
53618;SDS011;68717;53.040;18.488;2023-09-18T00:45:34;16.67;;;8.88;;
53618;SDS011;68717;53.040;18.488;2023-09-18T00:45:52;16.25;;;8.93;;
53618;SDS011;68717;53.040;18.488;2023-09-18T00:46:04;14.57;;;8.82;;
53618;SDS011;68717;53.040;18.488;2023-09-18T00:46:19;12.88;;;8.57;;
53618;SDS011;68717;53.040;18.488;2023-09-18T00:46:32;12.50;;;8.40;;
53618;SDS011;68717;53.040;18.488;2023-09-18T00:46:45;13.05;;;8.80;;
53618;SDS011;68717;53.040;18.488;2023-09-18T00:46:59;13.20;;;8.38;;
53618;SDS011;68717;53.040;18.488;2023-09-18T00:47:11;13.57;;;8.20;;
53618;SDS011;68717;53.040;18.488;2023-09-18T00:47:26;14.85;;;8.63;;
53618;SDS011;68717;53.040;18.488;2023-09-18T00:47:38;16.48;;;8.88;;
53618;SDS011;68717;53.040;18.488;2023-09-18T00:47:52;16.90;;;8.70;;
53618;SDS011;68717;53.040;18.488;2023-09-18T00:48:06;15.98;;;8.73;;
53618;SDS011;68717;53.040;18.488;2023-09-18T00:48:19;15.02;;;9.18;;
53618;SDS011;68717;53.040;18.488;2023-09-18T00:48:32;15.05;;;9.40;;
53618;SDS011;68717;53.040;18.488;2023-09-18T00:48:45;15.52;;;9.00;;
53618;SDS011;68717;53.040;18.488;2023-09-18T00:48:59;16.05;;;8.73;;
53618;SDS011;68717;53.040;18.488;2023-09-18T00:49:11;14.75;;;8.48;;
53618;SDS011;68717;53.040;18.488;2023-09-18T00:49:24;13.60;;;8.82;;
53618;SDS011;68717;53.040;18.488;2023-09-18T00:49:38;15.35;;;9.15;;
53618;SDS011;68717;53.040;18.488;2023-09-18T00:49:52;14.07;;;8.68;;
53618;SDS011;68717;53.040;18.488;2023-09-18T00:50:05;12.35;;;8.38;;
53618;SDS011;68717;53.040;18.488;2023-09-18T00:50:22;13.70;;;8.90;;
53618;SDS011;68717;53.040;18.488;2023-09-18T00:50:36;14.25;;;9.23;;
53618;SDS011;68717;53.040;18.488;2023-09-18T00:50:50;13.98;;;9.00;;
53618;SDS011;68717;53.040;18.488;2023-09-18T00:51:02;12.93;;;8.60;;
53618;SDS011;68717;53.040;18.488;2023-09-18T00:51:15;13.48;;;8.55;;
53618;SDS011;68717;53.040;18.488;2023-09-18T00:51:29;14.63;;;8.77;;
53618;SDS011;68717;53.040;18.488;2023-09-18T00:51:43;14.85;;;8.88;;
53618;SDS011;68717;53.040;18.488;2023-09-18T00:51:56;14.27;;;8.70;;
53618;SDS011;68717;53.040;18.488;2023-09-18T00:52:10;15.85;;;8.80;;
53618;SDS011;68717;53.040;18.488;2023-09-18T00:52:23;15.77;;;9.05;;
53618;SDS011;68717;53.040;18.488;2023-09-18T00:52:37;14.77;;;9.05;;
53618;SDS011;68717;53.040;18.488;2023-09-18T00:52:50;15.57;;;9.13;;
53618;SDS011;68717;53.040;18.488;2023-09-18T00:53:03;16.50;;;8.68;;
53618;SDS011;68717;53.040;18.488;2023-09-18T00:53:17;16.95;;;8.27;;
53618;SDS011;68717;53.040;18.488;2023-09-18T00:53:33;14.77;;;8.35;;
53618;SDS011;68717;53.040;18.488;2023-09-18T00:53:47;17.42;;;8.77;;
53618;SDS011;68717;53.040;18.488;2023-09-18T00:54:00;19.65;;;9.02;;
53618;SDS011;68717;53.040;18.488;2023-09-18T00:54:14;17.10;;;8.75;;
53618;SDS011;68717;53.040;18.488;2023-09-18T00:54:30;14.60;;;8.60;;
53618;SDS011;68717;53.040;18.488;2023-09-18T00:54:45;14.98;;;8.85;;
53618;SDS011;68717;53.040;18.488;2023-09-18T00:55:00;16.40;;;8.93;;
53618;SDS011;68717;53.040;18.488;2023-09-18T00:55:13;17.80;;;8.85;;
53618;SDS011;68717;53.040;18.488;2023-09-18T00:55:27;17.85;;;8.80;;
53618;SDS011;68717;53.040;18.488;2023-09-18T00:55:40;15.25;;;8.63;;
53618;SDS011;68717;53.040;18.488;2023-09-18T00:55:53;12.40;;;8.38;;
53618;SDS011;68717;53.040;18.488;2023-09-18T00:56:07;12.73;;;8.45;;
53618;SDS011;68717;53.040;18.488;2023-09-18T00:56:21;13.82;;;8.55;;
53618;SDS011;68717;53.040;18.488;2023-09-18T00:56:35;15.73;;;8.88;;
53618;SDS011;68717;53.040;18.488;2023-09-18T00:56:48;16.17;;;9.52;;
53618;SDS011;68717;53.040;18.488;2023-09-18T00:57:05;14.60;;;9.07;;
53618;SDS011;68717;53.040;18.488;2023-09-18T00:57:18;15.07;;;8.82;;
53618;SDS011;68717;53.040;18.488;2023-09-18T00:57:32;16.13;;;9.07;;
53618;SDS011;68717;53.040;18.488;2023-09-18T00:57:45;17.45;;;9.10;;
53618;SDS011;68717;53.040;18.488;2023-09-18T00:57:59;16.00;;;9.02;;
53618;SDS011;68717;53.040;18.488;2023-09-18T00:58:12;14.80;;;8.80;;
53618;SDS011;68717;53.040;18.488;2023-09-18T00:58:25;14.55;;;8.55;;
53618;SDS011;68717;53.040;18.488;2023-09-18T00:58:38;14.23;;;8.75;;
53618;SDS011;68717;53.040;18.488;2023-09-18T00:58:51;13.35;;;8.80;;
53618;SDS011;68717;53.040;18.488;2023-09-18T00:59:05;12.90;;;8.70;;
53618;SDS011;68717;53.040;18.488;2023-09-18T00:59:17;14.13;;;8.75;;
53618;SDS011;68717;53.040;18.488;2023-09-18T00:59:30;15.65;;;8.75;;
53618;SDS011;68717;53.040;18.488;2023-09-18T00:59:43;14.98;;;8.55;;
53618;SDS011;68717;53.040;18.488;2023-09-18T00:59:56;14.18;;;8.45;;
53618;SDS011;68717;53.040;18.488;2023-09-18T01:00:10;12.38;;;8.70;;
53618;SDS011;68717;53.040;18.488;2023-09-18T01:00:29;12.50;;;8.32;;
53618;SDS011;68717;53.040;18.488;2023-09-18T01:00:44;14.60;;;8.50;;
53618;SDS011;68717;53.040;18.488;2023-09-18T01:00:57;16.30;;;8.75;;
53618;SDS011;68717;53.040;18.488;2023-09-18T01:01:10;15.93;;;8.70;;
53618;SDS011;68717;53.040;18.488;2023-09-18T01:01:24;14.32;;;8.52;;
53618;SDS011;68717;53.040;18.488;2023-09-18T01:01:36;13.73;;;8.48;;
53618;SDS011;68717;53.040;18.488;2023-09-18T01:01:51;14.60;;;8.55;;
53618;SDS011;68717;53.040;18.488;2023-09-18T01:02:05;13.57;;;8.52;;
53618;SDS011;68717;53.040;18.488;2023-09-18T01:02:18;13.35;;;8.45;;
53618;SDS011;68717;53.040;18.488;2023-09-18T01:02:33;15.63;;;8.55;;
53618;SDS011;68717;53.040;18.488;2023-09-18T01:02:46;15.65;;;8.57;;
53618;SDS011;68717;53.040;18.488;2023-09-18T01:02:59;14.45;;;8.63;;
53618;SDS011;68717;53.040;18.488;2023-09-18T01:03:14;13.88;;;8.50;;
53618;SDS011;68717;53.040;18.488;2023-09-18T01:03:30;13.63;;;8.48;;
53618;SDS011;68717;53.040;18.488;2023-09-18T01:03:43;14.05;;;8.65;;
53618;SDS011;68717;53.040;18.488;2023-09-18T01:03:56;13.70;;;8.63;;
53618;SDS011;68717;53.040;18.488;2023-09-18T01:04:10;13.70;;;8.68;;
53618;SDS011;68717;53.040;18.488;2023-09-18T01:04:25;14.13;;;8.77;;
53618;SDS011;68717;53.040;18.488;2023-09-18T01:04:40;13.55;;;8.80;;
53618;SDS011;68717;53.040;18.488;2023-09-18T01:04:56;14.70;;;8.48;;
53618;SDS011;68717;53.040;18.488;2023-09-18T01:05:09;15.63;;;8.43;;
53618;SDS011;68717;53.040;18.488;2023-09-18T01:05:22;14.10;;;8.65;;
53618;SDS011;68717;53.040;18.488;2023-09-18T01:05:34;13.20;;;8.63;;
53618;SDS011;68717;53.040;18.488;2023-09-18T01:05:48;14.32;;;8.60;;
53618;SDS011;68717;53.040;18.488;2023-09-18T01:06:02;15.52;;;8.68;;
53618;SDS011;68717;53.040;18.488;2023-09-18T01:06:15;15.95;;;8.63;;
53618;SDS011;68717;53.040;18.488;2023-09-18T01:06:30;16.25;;;8.93;;
53618;SDS011;68717;53.040;18.488;2023-09-18T01:06:44;16.25;;;9.05;;
53618;SDS011;68717;53.040;18.488;2023-09-18T01:06:56;16.25;;;8.70;;
53618;SDS011;68717;53.040;18.488;2023-09-18T01:07:10;15.80;;;8.68;;
53618;SDS011;68717;53.040;18.488;2023-09-18T01:07:23;15.45;;;9.25;;
53618;SDS011;68717;53.040;18.488;2023-09-18T01:07:40;15.15;;;9.15;;
53618;SDS011;68717;53.040;18.488;2023-09-18T01:07:52;15.35;;;8.93;;
53618;SDS011;68717;53.040;18.488;2023-09-18T01:08:05;14.30;;;8.63;;
53618;SDS011;68717;53.040;18.488;2023-09-18T01:08:17;14.18;;;8.30;;
53618;SDS011;68717;53.040;18.488;2023-09-18T01:08:30;14.90;;;8.15;;
53618;SDS011;68717;53.040;18.488;2023-09-18T01:08:43;15.35;;;8.18;;
53618;SDS011;68717;53.040;18.488;2023-09-18T01:08:56;14.15;;;8.10;;
53618;SDS011;68717;53.040;18.488;2023-09-18T01:09:08;13.80;;;8.32;;
53618;SDS011;68717;53.040;18.488;2023-09-18T01:09:26;15.15;;;8.52;;
53618;SDS011;68717;53.040;18.488;2023-09-18T01:09:39;15.50;;;8.57;;
53618;SDS011;68717;53.040;18.488;2023-09-18T01:09:52;14.57;;;8.77;;
53618;SDS011;68717;53.040;18.488;2023-09-18T01:10:05;15.50;;;8.88;;
53618;SDS011;68717;53.040;18.488;2023-09-18T01:10:21;14.05;;;8.65;;
53618;SDS011;68717;53.040;18.488;2023-09-18T01:10:44;12.55;;;8.48;;
53618;SDS011;68717;53.040;18.488;2023-09-18T01:11:03;12.25;;;8.27;;
53618;SDS011;68717;53.040;18.488;2023-09-18T01:11:24;16.35;;;8.57;;
53618;SDS011;68717;53.040;18.488;2023-09-18T01:11:46;14.98;;;8.65;;
53618;SDS011;68717;53.040;18.488;2023-09-18T01:12:08;13.57;;;8.93;;
53618;SDS011;68717;53.040;18.488;2023-09-18T01:12:31;13.48;;;8.38;;
53618;SDS011;68717;53.040;18.488;2023-09-18T01:12:50;12.68;;;8.27;;
53618;SDS011;68717;53.040;18.488;2023-09-18T01:13:08;13.82;;;8.43;;
53618;SDS011;68717;53.040;18.488;2023-09-18T01:13:28;15.50;;;8.75;;
53618;SDS011;68717;53.040;18.488;2023-09-18T01:13:49;14.57;;;8.80;;
53618;SDS011;68717;53.040;18.488;2023-09-18T01:14:07;13.20;;;8.55;;
53618;SDS011;68717;53.040;18.488;2023-09-18T01:14:28;15.52;;;8.80;;
53618;SDS011;68717;53.040;18.488;2023-09-18T01:14:48;15.32;;;8.88;;
53618;SDS011;68717;53.040;18.488;2023-09-18T01:15:07;15.02;;;9.00;;
53618;SDS011;68717;53.040;18.488;2023-09-18T01:15:26;13.95;;;8.55;;
53618;SDS011;68717;53.040;18.488;2023-09-18T01:15:48;15.23;;;8.60;;
53618;SDS011;68717;53.040;18.488;2023-09-18T01:16:08;13.80;;;8.80;;
53618;SDS011;68717;53.040;18.488;2023-09-18T01:16:24;13.40;;;8.50;;
53618;SDS011;68717;53.040;18.488;2023-09-18T01:16:41;14.13;;;8.73;;
53618;SDS011;68717;53.040;18.488;2023-09-18T01:17:02;15.50;;;9.18;;
53618;SDS011;68717;53.040;18.488;2023-09-18T01:17:18;16.20;;;9.23;;
53618;SDS011;68717;53.040;18.488;2023-09-18T01:17:34;15.20;;;8.82;;
53618;SDS011;68717;53.040;18.488;2023-09-18T01:17:50;14.50;;;8.60;;
53618;SDS011;68717;53.040;18.488;2023-09-18T01:18:03;15.10;;;8.75;;
53618;SDS011;68717;53.040;18.488;2023-09-18T01:18:17;15.38;;;9.10;;
53618;SDS011;68717;53.040;18.488;2023-09-18T01:18:30;14.63;;;8.82;;
53618;SDS011;68717;53.040;18.488;2023-09-18T01:18:48;13.88;;;8.45;;
53618;SDS011;68717;53.040;18.488;2023-09-18T01:19:02;12.35;;;8.23;;
53618;SDS011;68717;53.040;18.488;2023-09-18T01:19:15;12.70;;;8.13;;
53618;SDS011;68717;53.040;18.488;2023-09-18T01:19:38;15.45;;;8.90;;
53618;SDS011;68717;53.040;18.488;2023-09-18T01:19:52;16.55;;;9.32;;
53618;SDS011;68717;53.040;18.488;2023-09-18T01:20:05;14.70;;;8.50;;
53618;SDS011;68717;53.040;18.488;2023-09-18T01:20:21;14.35;;;8.48;;
53618;SDS011;68717;53.040;18.488;2023-09-18T01:20:33;13.85;;;8.77;;
53618;SDS011;68717;53.040;18.488;2023-09-18T01:20:47;12.55;;;8.57;;
53618;SDS011;68717;53.040;18.488;2023-09-18T01:21:00;12.90;;;8.50;;
53618;SDS011;68717;53.040;18.488;2023-09-18T01:21:12;13.13;;;8.57;;
53618;SDS011;68717;53.040;18.488;2023-09-18T01:21:25;13.23;;;8.30;;
53618;SDS011;68717;53.040;18.488;2023-09-18T01:21:38;13.57;;;8.57;;